createdAt,value
2022-12-25T00:00:02.078Z,101638.28
2022-12-25T00:02:03.673Z,101647.03
2022-12-25T00:04:05.364Z,101644.47
2022-12-25T00:06:07.308Z,101649.75
2022-12-25T00:08:09.982Z,101650.66
2022-12-25T00:10:11.816Z,101653.31
2022-12-25T00:12:13.274Z,101642.00
2022-12-25T00:14:14.714Z,101650.78
2022-12-25T00:16:20.461Z,101649.06
2022-12-25T00:18:22.595Z,101653.44
2022-12-25T00:20:24.110Z,101649.94
2022-12-25T00:22:25.572Z,101646.47
2022-12-25T00:24:27.032Z,101648.22
2022-12-25T00:26:28.595Z,101650.00
2022-12-25T00:28:30.054Z,101656.97
2022-12-25T00:30:31.569Z,101653.50
2022-12-25T00:32:36.480Z,101658.72
2022-12-25T00:34:37.925Z,101645.66
2022-12-25T00:36:41.924Z,101650.84
2022-12-25T00:38:43.904Z,101655.19
2022-12-25T00:40:45.380Z,101656.06
2022-12-25T00:42:49.200Z,101673.47
2022-12-25T00:44:50.977Z,101673.47
2022-12-25T00:46:52.576Z,101676.88
2022-12-25T00:48:54.110Z,101669.00
2022-12-25T00:50:57.563Z,101668.13
2022-12-25T00:52:59.007Z,101668.09
2022-12-25T00:55:00.566Z,101661.06
2022-12-25T00:57:02.381Z,101656.69
2022-12-25T00:59:03.910Z,101647.94
2022-12-25T01:01:05.516Z,101652.25
2022-12-25T01:03:07.049Z,101649.63
2022-12-25T01:05:09.146Z,101656.56
2022-12-25T01:07:11.556Z,101645.19
2022-12-25T01:09:31.308Z,101644.28
2022-12-25T01:11:32.877Z,101649.47
2022-12-25T01:13:37.745Z,101649.41
2022-12-25T01:15:39.226Z,101652.00
2022-12-25T01:17:42.293Z,101660.69
2022-12-25T01:19:43.728Z,101677.19
2022-12-25T01:21:45.177Z,101671.06
2022-12-25T01:23:48.395Z,101667.56
2022-12-25T01:25:49.882Z,101670.16
2022-12-25T01:27:51.423Z,101668.38
2022-12-25T01:29:52.889Z,101677.91
2022-12-25T01:31:54.404Z,101688.31
2022-12-25T01:33:56.004Z,101685.69
2022-12-25T01:35:58.688Z,101685.69
2022-12-25T01:38:00.240Z,101683.91
2022-12-25T01:40:01.829Z,101687.38
2022-12-25T01:42:03.427Z,101678.63
2022-12-25T01:44:37.235Z,101684.69
2022-12-25T01:46:38.706Z,101685.47
2022-12-25T01:48:40.197Z,101681.97
2022-12-25T01:50:45.989Z,101683.69
2022-12-25T01:52:48.264Z,101680.16
2022-12-25T01:54:51.710Z,101683.63
2022-12-25T01:56:56.783Z,101686.19
2022-12-25T01:58:59.787Z,101690.53
2022-12-25T02:01:01.331Z,101683.53
2022-12-25T02:03:03.826Z,101683.53
2022-12-25T02:05:15.677Z,101688.75
2022-12-25T02:07:20.410Z,101685.22
2022-12-25T02:09:21.888Z,101696.53
2022-12-25T02:11:42.064Z,101706.06
2022-12-25T02:13:43.558Z,101706.06
2022-12-25T02:15:45.010Z,101706.03
2022-12-25T02:17:57.417Z,101706.88
2022-12-25T02:20:26.359Z,101698.16
2022-12-25T02:22:44.285Z,101704.16
2022-12-25T02:25:05.534Z,101708.44
2022-12-25T02:27:26.736Z,101706.63
2022-12-25T02:29:50.086Z,101701.41
2022-12-25T02:32:28.109Z,101699.63
2022-12-25T02:34:29.483Z,101693.50
2022-12-25T02:36:53.869Z,101691.72
2022-12-25T02:39:19.803Z,101693.47
2022-12-25T02:41:21.609Z,101696.91
2022-12-25T02:43:48.475Z,101690.84
2022-12-25T02:46:13.832Z,101689.09
2022-12-25T02:48:35.574Z,101691.66
2022-12-25T02:50:55.928Z,101696.81
2022-12-25T02:53:20.294Z,101696.75
2022-12-25T02:55:44.552Z,101696.75
2022-12-25T02:58:09.385Z,101705.47
2022-12-25T03:00:30.724Z,101692.44
2022-12-25T03:02:51.974Z,101689.00
2022-12-25T03:05:15.305Z,101685.56
2022-12-25T03:07:20.519Z,101675.97
2022-12-25T03:09:45.789Z,101676.00
2022-12-25T03:11:54.592Z,101667.28
2022-12-25T03:14:17.834Z,101676.78
2022-12-25T03:16:39.388Z,101679.41
2022-12-25T03:18:41.794Z,101681.13
2022-12-25T03:21:02.371Z,101679.41
2022-12-25T03:23:24.428Z,101677.63
2022-12-25T03:25:47.385Z,101683.75
2022-12-25T03:27:54.478Z,101669.78
2022-12-25T03:30:14.935Z,101671.53
2022-12-25T03:32:25.231Z,101661.94
2022-12-25T03:34:58.653Z,101672.38
2022-12-25T03:37:36.625Z,101677.56
2022-12-25T03:39:54.945Z,101678.44
2022-12-25T03:42:20.950Z,101674.06
2022-12-25T03:44:42.829Z,101673.19
2022-12-25T03:47:07.067Z,101667.09
2022-12-25T03:49:35.591Z,101664.47
2022-12-25T03:51:57.422Z,101666.16
2022-12-25T03:54:24.331Z,101664.44
2022-12-25T03:56:48.192Z,101659.19
2022-12-25T03:59:11.111Z,101659.19
2022-12-25T04:01:31.571Z,101646.09
2022-12-25T04:03:51.771Z,101647.84
2022-12-25T04:06:11.937Z,101640.88
2022-12-25T04:08:31.698Z,101648.69
2022-12-25T04:10:51.693Z,101641.75
2022-12-25T04:13:12.026Z,101638.25
2022-12-25T04:15:31.836Z,101640.88
2022-12-25T04:17:51.782Z,101635.66
2022-12-25T04:20:11.629Z,101634.78
2022-12-25T04:22:31.466Z,101633.91
2022-12-25T04:24:51.332Z,101631.28
2022-12-25T04:27:11.115Z,101633.03
2022-12-25T04:29:30.775Z,101633.03
2022-12-25T04:31:50.762Z,101633.03
2022-12-25T04:34:18.053Z,101612.16
2022-12-25T04:36:19.780Z,101602.59
2022-12-25T04:38:22.294Z,101605.19
2022-12-25T04:40:23.882Z,101601.72
2022-12-25T04:42:25.343Z,101588.69
2022-12-25T04:44:27.177Z,101583.47
2022-12-25T04:46:28.721Z,101593.03
2022-12-25T04:48:32.839Z,101586.94
2022-12-25T04:50:34.305Z,101596.50
2022-12-25T04:52:37.852Z,101604.31
2022-12-25T04:54:39.325Z,101602.59
2022-12-25T04:56:45.486Z,101587.78
2022-12-25T04:58:47.695Z,101591.25
2022-12-25T05:00:49.158Z,101596.47
2022-12-25T05:02:50.801Z,101593.00
2022-12-25T05:04:52.350Z,101588.66
2022-12-25T05:06:53.818Z,101581.69
2022-12-25T05:08:55.327Z,101579.88
2022-12-25T05:10:56.793Z,101582.47
2022-12-25T05:12:58.224Z,101585.06
2022-12-25T05:14:59.680Z,101573.78
2022-12-25T05:17:01.153Z,101581.69
2022-12-25T05:19:02.655Z,101573.88
2022-12-25T05:21:04.588Z,101573.03
2022-12-25T05:23:06.126Z,101558.31
2022-12-25T05:25:07.953Z,101568.75
2022-12-25T05:27:09.431Z,101570.56
2022-12-25T05:29:11.032Z,101576.66
2022-12-25T05:31:12.575Z,101581.94
2022-12-25T05:33:14.222Z,101571.50
2022-12-25T05:35:15.865Z,101584.63
2022-12-25T05:37:17.312Z,101582.03
2022-12-25T05:39:19.094Z,101592.53
2022-12-25T05:41:20.688Z,101587.34
2022-12-25T05:43:22.185Z,101581.28
2022-12-25T05:45:23.652Z,101583.94
2022-12-25T05:47:25.129Z,101578.75
2022-12-25T05:49:26.557Z,101583.16
2022-12-25T05:51:28.088Z,101577.97
2022-12-25T05:53:29.539Z,101589.28
2022-12-25T05:55:30.993Z,101584.94
2022-12-25T05:57:32.533Z,101594.50
2022-12-25T05:59:34.209Z,101591.88
2022-12-25T06:01:35.707Z,101593.63
2022-12-25T06:03:37.382Z,101578.84
2022-12-25T06:05:39.785Z,101585.81
2022-12-25T06:07:41.316Z,101584.97
2022-12-25T06:09:43.781Z,101573.69
2022-12-25T06:11:45.897Z,101574.56
2022-12-25T06:13:52.116Z,101565.03
2022-12-25T06:15:53.762Z,101572.88
2022-12-25T06:17:55.339Z,101569.44
2022-12-25T06:19:56.788Z,101568.59
2022-12-25T06:21:58.284Z,101577.31
2022-12-25T06:24:00.759Z,101580.84
2022-12-25T06:26:07.639Z,101580.88
2022-12-25T06:28:09.111Z,101579.13
2022-12-25T06:30:10.879Z,101576.56
2022-12-25T06:32:12.375Z,101580.09
2022-12-25T06:34:16.465Z,101567.91
2022-12-25T06:36:24.265Z,101566.19
2022-12-25T06:38:25.787Z,101571.44
2022-12-25T06:40:27.277Z,101567.09
2022-12-25T06:42:28.738Z,101561.06
2022-12-25T06:44:30.205Z,101564.56
2022-12-25T06:46:31.732Z,101558.50
2022-12-25T06:48:34.230Z,101555.03
2022-12-25T06:50:35.675Z,101553.28
2022-12-25T06:52:37.120Z,101562.91
2022-12-25T06:54:38.590Z,101561.16
2022-12-25T06:56:40.122Z,101574.25
2022-12-25T06:58:46.407Z,101570.78
2022-12-25T07:00:47.920Z,101569.91
2022-12-25T07:02:49.780Z,101580.41
2022-12-25T07:04:52.542Z,101579.53
2022-12-25T07:06:54.164Z,101577.81
2022-12-25T07:08:55.636Z,101579.56
2022-12-25T07:10:57.153Z,101581.34
2022-12-25T07:12:58.599Z,101576.13
2022-12-25T07:15:00.080Z,101564.81
2022-12-25T07:17:01.633Z,101568.31
2022-12-25T07:19:03.229Z,101576.16
2022-12-25T07:21:14.058Z,101566.59
2022-12-25T07:23:15.549Z,101567.47
2022-12-25T07:25:17.029Z,101567.47
2022-12-25T07:27:18.533Z,101569.25
2022-12-25T07:29:19.992Z,101572.75
2022-12-25T07:31:21.751Z,101572.81
2022-12-25T07:33:23.328Z,101572.84
2022-12-25T07:35:24.838Z,101565.88
2022-12-25T07:37:26.288Z,101565.03
2022-12-25T07:39:28.185Z,101553.72
2022-12-25T07:41:29.664Z,101563.34
2022-12-25T07:43:31.151Z,101563.34
2022-12-25T07:45:32.621Z,101555.53
2022-12-25T07:47:34.128Z,101550.31
2022-12-25T07:49:36.098Z,101546.84
2022-12-25T07:51:37.801Z,101545.16
2022-12-25T07:53:39.583Z,101548.66
2022-12-25T07:55:41.076Z,101543.44
2022-12-25T07:57:42.679Z,101540.84
2022-12-25T07:59:44.172Z,101543.47
2022-12-25T08:01:46.010Z,101541.81
2022-12-25T08:03:53.157Z,101542.69
2022-12-25T08:05:54.713Z,101540.09
2022-12-25T08:07:58.091Z,101541.00
2022-12-25T08:09:59.655Z,101545.38
2022-12-25T08:12:01.159Z,101545.41
2022-12-25T08:14:05.885Z,101550.66
2022-12-25T08:16:10.117Z,101554.16
2022-12-25T08:18:11.733Z,101551.56
2022-12-25T08:20:13.679Z,101553.31
2022-12-25T08:22:15.216Z,101551.59
2022-12-25T08:24:16.662Z,101558.59
2022-12-25T08:26:22.536Z,101560.38
2022-12-25T08:28:23.978Z,101564.75
2022-12-25T08:30:25.490Z,101570.03
2022-12-25T08:32:27.004Z,101571.78
2022-12-25T08:34:28.493Z,101579.66
2022-12-25T08:36:30.750Z,101575.31
2022-12-25T08:38:32.495Z,101581.44
2022-12-25T08:40:33.959Z,101577.97
2022-12-25T08:42:35.417Z,101588.47
2022-12-25T08:44:36.878Z,101585.88
2022-12-25T08:46:39.837Z,101571.91
2022-12-25T08:48:43.620Z,101570.19
2022-12-25T08:50:49.917Z,101561.47
2022-12-25T08:52:51.392Z,101552.75
2022-12-25T08:54:52.842Z,101561.50
2022-12-25T08:57:02.128Z,101560.63
2022-12-25T08:59:04.099Z,101561.53
2022-12-25T09:01:06.302Z,101553.69
2022-12-25T09:03:07.982Z,101548.47
2022-12-25T09:05:09.911Z,101551.97
2022-12-25T09:07:11.573Z,101543.22
2022-12-25T09:09:13.078Z,101538.88
2022-12-25T09:11:15.123Z,101547.66
2022-12-25T09:13:16.676Z,101551.13
2022-12-25T09:15:18.233Z,101555.50
2022-12-25T09:17:19.738Z,101565.13
2022-12-25T09:19:22.101Z,101568.63
2022-12-25T09:21:23.841Z,101580.00
2022-12-25T09:23:25.432Z,101582.63
2022-12-25T09:25:27.037Z,101580.00
2022-12-25T09:27:28.507Z,101580.88
2022-12-25T09:29:29.942Z,101587.88
2022-12-25T09:31:31.619Z,101586.13
2022-12-25T09:33:33.196Z,101580.00
2022-12-25T09:35:34.914Z,101579.13
2022-12-25T09:37:36.359Z,101583.50
2022-12-25T09:39:42.279Z,101580.88
2022-12-25T09:41:50.304Z,101566.03
2022-12-25T09:43:57.483Z,101562.53
2022-12-25T09:46:02.309Z,101561.66
2022-12-25T09:48:04.248Z,101562.53
2022-12-25T09:50:14.895Z,101556.41
2022-12-25T09:52:37.584Z,101555.53
2022-12-25T09:54:46.593Z,101555.53
2022-12-25T09:56:48.326Z,101557.28
2022-12-25T09:58:49.790Z,101555.53
2022-12-25T10:01:02.009Z,101531.94
2022-12-25T10:03:24.203Z,101525.81
2022-12-25T10:05:37.958Z,101530.19
2022-12-25T10:08:09.941Z,101530.19
2022-12-25T10:10:49.439Z,101527.56
2022-12-25T10:12:59.663Z,101522.31
2022-12-25T10:15:17.541Z,101511.81
2022-12-25T10:17:28.370Z,101509.19
2022-12-25T10:19:57.392Z,101503.94
2022-12-25T10:22:03.947Z,101506.56
2022-12-25T10:24:31.260Z,101505.69
2022-12-25T10:26:34.344Z,101503.06
2022-12-25T10:28:43.637Z,101510.06
2022-12-25T10:30:45.526Z,101513.56
2022-12-25T10:32:48.025Z,101521.41
2022-12-25T10:34:50.040Z,101524.91
2022-12-25T10:36:52.180Z,101528.41
2022-12-25T10:38:54.648Z,101517.94
2022-12-25T10:41:21.331Z,101503.94
2022-12-25T10:43:35.666Z,101502.19
2022-12-25T10:45:48.621Z,101497.81
2022-12-25T10:47:59.539Z,101486.44
2022-12-25T10:50:20.265Z,101483.81
2022-12-25T10:52:25.133Z,101482.06
2022-12-25T10:54:29.666Z,101475.94
2022-12-25T10:56:31.196Z,101479.44
2022-12-25T10:58:33.786Z,101491.66
2022-12-25T11:00:35.312Z,101488.16
2022-12-25T11:02:40.774Z,101487.28
2022-12-25T11:04:42.994Z,101487.28
2022-12-25T11:06:44.467Z,101480.28
2022-12-25T11:08:52.967Z,101478.53
2022-12-25T11:11:08.492Z,101476.78
2022-12-25T11:13:24.387Z,101488.16
2022-12-25T11:15:34.182Z,101496.88
2022-12-25T11:17:35.925Z,101490.75
2022-12-25T11:19:37.359Z,101489.88
2022-12-25T11:21:38.834Z,101485.50
2022-12-25T11:23:48.290Z,101473.28
2022-12-25T11:26:05.477Z,101469.75
2022-12-25T11:28:07.270Z,101485.50
2022-12-25T11:30:16.170Z,101482.00
2022-12-25T11:32:27.839Z,101481.09
2022-12-25T11:34:37.045Z,101475.84
2022-12-25T11:36:46.148Z,101484.59
2022-12-25T11:38:47.884Z,101477.56
2022-12-25T11:40:52.237Z,101476.69
2022-12-25T11:43:07.912Z,101470.56
2022-12-25T11:45:31.331Z,101466.19
2022-12-25T11:47:59.834Z,101462.66
2022-12-25T11:50:14.007Z,101462.66
2022-12-25T11:52:17.375Z,101447.78
2022-12-25T11:54:33.526Z,101440.75
2022-12-25T11:56:37.831Z,101435.50
2022-12-25T11:58:49.388Z,101423.22
2022-12-25T12:00:54.330Z,101411.84
2022-12-25T12:03:03.956Z,101410.06
2022-12-25T12:05:17.854Z,101409.19
2022-12-25T12:07:25.486Z,101416.19
2022-12-25T12:09:53.628Z,101410.94
2022-12-25T12:12:36.407Z,101397.78
2022-12-25T12:14:47.876Z,101390.78
2022-12-25T12:16:49.516Z,101391.66
2022-12-25T12:18:51.146Z,101375.88
2022-12-25T12:21:18.366Z,101382.88
2022-12-25T12:23:19.932Z,101377.59
2022-12-25T12:25:22.294Z,101368.84
2022-12-25T12:27:26.584Z,101368.84
2022-12-25T12:29:45.615Z,101365.31
2022-12-25T12:31:50.469Z,101364.47
2022-12-25T12:33:56.105Z,101360.94
2022-12-25T12:35:58.162Z,101355.69
2022-12-25T12:38:04.258Z,101336.44
2022-12-25T12:40:21.316Z,101338.19
2022-12-25T12:42:30.982Z,101331.19
2022-12-25T12:44:36.711Z,101342.59
2022-12-25T12:46:39.949Z,101338.22
2022-12-25T12:48:44.649Z,101334.72
2022-12-25T12:50:46.588Z,101325.09
2022-12-25T12:52:48.091Z,101312.84
2022-12-25T12:54:59.446Z,101311.97
2022-12-25T12:57:04.551Z,101303.22
2022-12-25T12:59:09.840Z,101297.09
2022-12-25T13:01:18.814Z,101307.59
2022-12-25T13:03:45.067Z,101307.63
2022-12-25T13:05:49.588Z,101308.47
2022-12-25T13:08:05.634Z,101309.38
2022-12-25T13:10:23.833Z,101319.00
2022-12-25T13:12:25.588Z,101312.88
2022-12-25T13:14:27.468Z,101312.00
2022-12-25T13:16:36.933Z,101308.50
2022-12-25T13:18:39.700Z,101306.75
2022-12-25T13:20:57.320Z,101305.00
2022-12-25T13:22:58.788Z,101304.13
2022-12-25T13:25:02.630Z,101299.75
2022-12-25T13:27:22.822Z,101305.88
2022-12-25T13:29:36.285Z,101292.75
2022-12-25T13:31:40.562Z,101296.25
2022-12-25T13:33:58.160Z,101292.75
2022-12-25T13:35:59.857Z,101294.50
2022-12-25T13:38:01.370Z,101282.25
2022-12-25T13:40:07.840Z,101277.00
2022-12-25T13:42:10.049Z,101284.88
2022-12-25T13:44:23.637Z,101287.53
2022-12-25T13:46:27.500Z,101284.03
2022-12-25T13:48:29.065Z,101275.28
2022-12-25T13:50:33.143Z,101265.63
2022-12-25T13:52:37.637Z,101264.78
2022-12-25T13:54:39.520Z,101273.53
2022-12-25T13:56:59.155Z,101259.53
2022-12-25T13:59:00.712Z,101255.16
2022-12-25T14:01:03.412Z,101250.78
2022-12-25T14:03:09.911Z,101256.91
2022-12-25T14:05:39.805Z,101243.78
2022-12-25T14:07:50.242Z,101241.19
2022-12-25T14:10:03.302Z,101248.19
2022-12-25T14:12:05.272Z,101244.69
2022-12-25T14:14:17.876Z,101246.44
2022-12-25T14:16:21.093Z,101244.72
2022-12-25T14:18:24.191Z,101235.09
2022-12-25T14:20:33.701Z,101244.72
2022-12-25T14:22:36.000Z,101239.47
2022-12-25T14:24:39.489Z,101237.72
2022-12-25T14:26:41.426Z,101235.09
2022-12-25T14:28:48.208Z,101242.09
2022-12-25T14:30:49.813Z,101237.72
2022-12-25T14:32:54.325Z,101243.84
2022-12-25T14:35:00.203Z,101239.47
2022-12-25T14:37:03.749Z,101242.97
2022-12-25T14:39:07.604Z,101237.72
2022-12-25T14:41:33.291Z,101235.09
2022-12-25T14:43:36.361Z,101230.72
2022-12-25T14:45:41.050Z,101229.88
2022-12-25T14:47:54.723Z,101225.47
2022-12-25T14:49:56.752Z,101222.88
2022-12-25T14:51:58.746Z,101225.50
2022-12-25T14:54:03.837Z,101235.13
2022-12-25T14:56:07.789Z,101227.25
2022-12-25T14:58:20.517Z,101222.00
2022-12-25T15:00:31.667Z,101224.63
2022-12-25T15:02:45.792Z,101216.75
2022-12-25T15:04:47.496Z,101215.03
2022-12-25T15:06:57.619Z,101214.16
2022-12-25T15:09:01.780Z,101214.16
2022-12-25T15:11:03.689Z,101211.53
2022-12-25T15:13:06.221Z,101211.53
2022-12-25T15:15:08.127Z,101201.91
2022-12-25T15:17:24.536Z,101203.66
2022-12-25T15:19:36.944Z,101205.44
2022-12-25T15:21:39.174Z,101210.69
2022-12-25T15:23:41.947Z,101222.06
2022-12-25T15:25:43.438Z,101215.06
2022-12-25T15:27:44.905Z,101213.31
2022-12-25T15:30:09.077Z,101206.28
2022-12-25T15:32:24.164Z,101200.19
2022-12-25T15:34:25.595Z,101195.78
2022-12-25T15:36:27.865Z,101204.56
2022-12-25T15:38:36.342Z,101200.19
2022-12-25T15:40:38.640Z,101194.03
2022-12-25T15:42:41.132Z,101189.66
2022-12-25T15:44:43.675Z,101186.16
2022-12-25T15:46:46.061Z,101183.53
2022-12-25T15:48:47.617Z,101169.53
2022-12-25T15:50:49.402Z,101159.91
2022-12-25T15:52:51.039Z,101152.03
2022-12-25T15:54:54.139Z,101153.75
2022-12-25T15:56:58.445Z,101151.13
2022-12-25T15:58:59.898Z,101152.00
2022-12-25T16:01:01.693Z,101144.13
2022-12-25T16:03:03.351Z,101141.50
2022-12-25T16:05:10.274Z,101139.75
2022-12-25T16:07:20.779Z,101142.38
2022-12-25T16:09:22.397Z,101140.63
2022-12-25T16:11:23.870Z,101131.00
2022-12-25T16:13:25.361Z,101125.75
2022-12-25T16:15:26.821Z,101126.63
2022-12-25T16:17:28.332Z,101122.25
2022-12-25T16:19:29.829Z,101127.47
2022-12-25T16:21:41.143Z,101122.22
2022-12-25T16:23:43.218Z,101117.84
2022-12-25T16:25:44.976Z,101122.22
2022-12-25T16:27:46.704Z,101119.56
2022-12-25T16:29:48.199Z,101109.94
2022-12-25T16:31:49.674Z,101116.94
2022-12-25T16:33:52.893Z,101108.19
2022-12-25T16:35:55.012Z,101117.81
2022-12-25T16:37:56.478Z,101115.19
2022-12-25T16:39:57.928Z,101118.66
2022-12-25T16:41:59.552Z,101115.13
2022-12-25T16:44:09.298Z,101118.63
2022-12-25T16:46:15.238Z,101119.50
2022-12-25T16:48:16.818Z,101117.72
2022-12-25T16:50:18.653Z,101115.97
2022-12-25T16:52:20.165Z,101115.97
2022-12-25T16:54:21.668Z,101117.69
2022-12-25T16:56:28.284Z,101121.19
2022-12-25T16:58:31.481Z,101131.69
2022-12-25T17:00:32.925Z,101128.19
2022-12-25T17:02:34.771Z,101114.19
2022-12-25T17:04:36.446Z,101111.53
2022-12-25T17:06:37.915Z,101109.78
2022-12-25T17:08:39.387Z,101111.53
2022-12-25T17:10:40.825Z,101097.53
2022-12-25T17:12:42.477Z,101101.03
2022-12-25T17:14:43.949Z,101097.50
2022-12-25T17:16:45.743Z,101087.88
2022-12-25T17:18:47.343Z,101088.75
2022-12-25T17:20:50.047Z,101077.34
2022-12-25T17:22:51.588Z,101068.59
2022-12-25T17:24:53.097Z,101062.50
2022-12-25T17:26:54.592Z,101062.47
2022-12-25T17:28:57.146Z,101058.97
2022-12-25T17:31:10.599Z,101063.34
2022-12-25T17:33:12.156Z,101058.09
2022-12-25T17:35:13.732Z,101066.84
2022-12-25T17:37:15.170Z,101067.72
2022-12-25T17:39:16.632Z,101067.72
2022-12-25T17:41:19.088Z,101054.56
2022-12-25T17:43:21.167Z,101052.81
2022-12-25T17:45:22.771Z,101046.69
2022-12-25T17:47:24.229Z,101045.81
2022-12-25T17:49:26.188Z,101034.44
2022-12-25T17:51:29.518Z,101045.81
2022-12-25T17:53:31.177Z,101044.03
2022-12-25T17:55:36.360Z,101045.78
2022-12-25T17:57:38.858Z,101044.03
2022-12-25T17:59:42.560Z,101039.66
2022-12-25T18:01:44.215Z,101038.75
2022-12-25T18:03:47.094Z,101038.75
2022-12-25T18:05:48.962Z,101043.13
2022-12-25T18:07:50.445Z,101039.59
2022-12-25T18:09:51.896Z,101032.63
2022-12-25T18:11:53.371Z,101028.22
2022-12-25T18:13:57.936Z,101015.06
2022-12-25T18:16:07.405Z,101003.69
2022-12-25T18:18:09.321Z,100996.69
2022-12-25T18:20:11.047Z,100990.56
2022-12-25T18:22:12.529Z,100987.94
2022-12-25T18:24:14.015Z,100994.06
2022-12-25T18:26:15.813Z,101000.19
2022-12-25T18:28:17.584Z,100997.56
2022-12-25T18:30:20.010Z,100993.16
2022-12-25T18:32:27.852Z,101001.91
2022-12-25T18:34:29.671Z,101000.16
2022-12-25T18:36:31.611Z,101000.13
2022-12-25T18:38:33.331Z,100996.63
2022-12-25T18:40:40.149Z,101003.63
2022-12-25T18:42:43.022Z,100999.22
2022-12-25T18:44:45.008Z,101008.84
2022-12-25T18:46:46.469Z,101004.50
2022-12-25T18:48:47.960Z,100996.59
2022-12-25T18:50:56.428Z,100991.34
2022-12-25T18:52:57.887Z,100994.88
2022-12-25T18:54:59.399Z,100999.22
2022-12-25T18:57:06.868Z,100995.75
2022-12-25T18:59:08.695Z,100987.00
2022-12-25T19:01:12.414Z,100996.59
2022-12-25T19:03:14.334Z,100988.72
2022-12-25T19:05:16.109Z,100993.97
2022-12-25T19:07:17.595Z,100994.84
2022-12-25T19:09:20.151Z,100984.34
2022-12-25T19:11:22.809Z,100986.06
2022-12-25T19:13:24.337Z,100989.56
2022-12-25T19:15:25.930Z,100986.06
2022-12-25T19:17:31.928Z,100972.91
2022-12-25T19:19:33.851Z,100967.63
2022-12-25T19:21:35.339Z,100960.63
2022-12-25T19:23:37.996Z,100965.88
2022-12-25T19:25:40.559Z,100973.75
2022-12-25T19:27:42.018Z,100969.38
2022-12-25T19:29:43.594Z,100978.16
2022-12-25T19:31:45.142Z,100978.16
2022-12-25T19:33:46.602Z,100975.53
2022-12-25T19:35:49.005Z,100969.41
2022-12-25T19:37:50.564Z,100974.63
2022-12-25T19:39:52.007Z,100979.88
2022-12-25T19:41:53.467Z,100982.50
2022-12-25T19:43:54.913Z,100984.28
2022-12-25T19:45:57.155Z,100979.03
2022-12-25T19:47:58.690Z,100978.16
2022-12-25T19:50:03.193Z,100987.78
2022-12-25T19:52:05.611Z,100985.16
2022-12-25T19:54:07.676Z,100982.53
2022-12-25T19:56:09.520Z,100981.66
2022-12-25T19:58:11.561Z,100982.53
2022-12-25T20:00:13.366Z,100979.91
2022-12-25T20:02:15.022Z,100983.41
2022-12-25T20:04:18.190Z,100977.28
2022-12-25T20:06:25.866Z,100977.25
2022-12-25T20:08:27.936Z,100975.53
2022-12-25T20:10:29.632Z,100980.81
2022-12-25T20:12:31.170Z,100975.53
2022-12-25T20:14:32.717Z,100978.19
2022-12-25T20:16:38.142Z,100974.69
2022-12-25T20:18:40.463Z,100972.06
2022-12-25T20:20:42.887Z,100972.91
2022-12-25T20:22:44.344Z,100978.19
2022-12-25T20:24:47.715Z,100979.06
2022-12-25T20:26:53.753Z,100973.81
2022-12-25T20:28:59.316Z,100979.94
2022-12-25T20:31:17.449Z,100972.06
2022-12-25T20:33:19.010Z,100974.69
2022-12-25T20:35:20.465Z,100963.31
2022-12-25T20:37:22.044Z,100970.31
2022-12-25T20:39:23.541Z,100972.06
2022-12-25T20:41:27.427Z,100972.91
2022-12-25T20:43:30.664Z,100969.41
2022-12-25T20:45:32.429Z,100967.63
2022-12-25T20:47:35.017Z,100962.38
2022-12-25T20:49:36.510Z,100962.38
2022-12-25T20:51:38.184Z,100958.91
2022-12-25T20:53:40.540Z,100969.44
2022-12-25T20:55:49.701Z,100965.94
2022-12-25T20:57:51.273Z,100965.94
2022-12-25T20:59:53.429Z,100972.97
2022-12-25T21:01:55.931Z,100964.22
2022-12-25T21:03:58.212Z,100958.09
2022-12-25T21:06:00.046Z,100959.84
2022-12-25T21:08:02.170Z,100967.72
2022-12-25T21:10:04.676Z,100974.72
2022-12-25T21:12:06.849Z,100969.47
2022-12-25T21:14:08.756Z,100969.44
2022-12-25T21:16:13.568Z,100969.41
2022-12-25T21:18:20.538Z,100974.66
2022-12-25T21:20:22.042Z,100972.03
2022-12-25T21:22:23.512Z,100977.31
2022-12-25T21:24:25.010Z,100979.94
2022-12-25T21:26:28.743Z,100979.94
2022-12-25T21:28:32.256Z,100980.81
2022-12-25T21:30:34.301Z,100986.06
2022-12-25T21:33:16.979Z,100984.31
2022-12-25T21:35:18.840Z,100986.94
2022-12-25T21:37:20.284Z,100981.66
2022-12-25T21:39:21.924Z,100975.53
2022-12-25T21:41:24.785Z,100972.91
2022-12-25T21:43:26.280Z,100974.63
2022-12-25T21:45:28.506Z,100979.88
2022-12-25T21:48:01.899Z,100979.91
2022-12-25T21:50:10.033Z,100982.56
2022-12-25T21:52:12.103Z,100981.69
2022-12-25T21:54:14.471Z,100981.66
2022-12-25T21:56:16.465Z,100979.91
2022-12-25T21:58:17.901Z,100976.41
2022-12-25T22:00:19.867Z,100984.25
2022-12-25T22:02:22.359Z,100983.38
2022-12-25T22:04:24.005Z,100986.91
2022-12-25T22:06:48.282Z,100986.91
2022-12-25T22:08:49.792Z,100985.16
2022-12-25T22:10:51.313Z,100980.81
2022-12-25T22:13:11.224Z,100986.94
2022-12-25T22:15:12.774Z,100987.78
2022-12-25T22:17:33.012Z,100988.63
2022-12-25T22:19:48.134Z,100990.38
2022-12-25T22:21:49.630Z,100991.25
2022-12-25T22:23:51.207Z,100993.03
2022-12-25T22:25:52.694Z,100991.28
2022-12-25T22:27:54.888Z,100993.94
2022-12-25T22:29:57.026Z,100989.56
2022-12-25T22:31:58.573Z,100998.31
2022-12-25T22:34:00.038Z,100990.41
2022-12-25T22:36:07.258Z,100991.25
2022-12-25T22:38:08.804Z,100989.47
2022-12-25T22:40:13.643Z,100992.97
2022-12-25T22:42:15.763Z,100991.22
2022-12-25T22:44:18.209Z,100986.84
2022-12-25T22:46:20.099Z,100993.03
2022-12-25T22:48:21.596Z,101001.81
2022-12-25T22:50:23.167Z,101011.47
2022-12-25T22:52:24.928Z,101009.72
2022-12-25T22:54:29.333Z,101001.84
2022-12-25T22:56:30.945Z,101004.50
2022-12-25T22:58:32.398Z,101012.38
2022-12-25T23:00:33.872Z,101008.88
2022-12-25T23:02:35.591Z,101003.63
2022-12-25T23:04:37.258Z,101007.13
2022-12-25T23:06:39.774Z,101001.06
2022-12-25T23:08:41.258Z,101012.44
2022-12-25T23:10:42.720Z,101009.81
2022-12-25T23:13:02.568Z,100998.44
2022-12-25T23:15:04.377Z,100990.56
2022-12-25T23:17:28.312Z,100986.16
2022-12-25T23:19:48.483Z,100978.25
2022-12-25T23:22:08.892Z,100973.84
2022-12-25T23:24:29.228Z,100965.09
2022-12-25T23:26:30.750Z,100974.72
2022-12-25T23:28:50.762Z,100979.09
2022-12-25T23:30:52.232Z,100988.75
2022-12-25T23:32:53.703Z,100988.81
2022-12-25T23:34:55.893Z,100988.81
2022-12-25T23:36:57.672Z,100992.31
2022-12-25T23:39:04.870Z,100986.22
2022-12-25T23:41:10.360Z,100988.00
2022-12-25T23:43:11.907Z,100980.13
2022-12-25T23:45:13.789Z,100977.47
2022-12-25T23:47:15.314Z,100981.84
2022-12-25T23:49:17.227Z,100994.97
2022-12-25T23:51:18.702Z,101009.03
2022-12-25T23:53:20.182Z,101022.19
2022-12-25T23:55:21.752Z,101019.56
2022-12-25T23:57:23.279Z,101009.03